Condor Express — 9V5373 — position and weather

sailwx.info

Track history (hours):
 
Tides and Currents Weather Stations Pressure Air Temp Water Temp Dewpoint Dewpoint Depression Visibility Wind Speed Wind Dir Waves Ship Positions

Condor Express

Operator: Condor Marine Services

Last reported at 2017-Aug-20 13:49 UTC. Time now 2017-Aug-22 22:28 UTC.
Position N 33°56' W 023°18'.

Length 235 m; draft 7.6 m.

Type: Cargo ship. MMSI: 563014500.

Date/timePositionNaut miles runAvg speedWind from/ knotsBaromVisibWave heightAir tempDewpointWater temp
2017-Aug-20 13:49N 33°56' W 023°18'2213.1
2017-Aug-20 12:11N 33°59' W 022°52'21312.7
2017-Aug-19 19:28N 34°36' W 018°39'28412.8
2017-Aug-18 21:19N 35°26' W 012°58'11 3.3
2017-Aug-18 17:57N 35°30' W 012°45'28 1.7
2017-Aug-18 01:15N 35°52' W 012°23'0 1.5
2017-Aug-18 01:00N 35°52' W 012°22'1 1.6
2017-Aug-18 00:30N 35°53' W 012°22'1 1.5
2017-Aug-18 00:00N 35°53' W 012°21'1 1.6
2017-Aug-17 23:30N 35°54' W 012°20'1 1.7
2017-Aug-17 22:57N 35°55' W 012°20'1 1.9
2017-Aug-17 22:30N 35°55' W 012°19'1 2.0
2017-Aug-17 21:57N 35°56' W 012°18'1 2.1
2017-Aug-17 21:30N 35°57' W 012°18'1 2.0
2017-Aug-17 21:00N 35°58' W 012°17'1 2.0
2017-Aug-17 20:30N 35°59' W 012°17'1 1.9
2017-Aug-17 19:57N 35°60' W 012°16'1 1.9
2017-Aug-17 19:30N 36°00' W 012°15'2 1.8
2017-Aug-17 18:21N 36°02' W 012°14'1 2.0
2017-Aug-17 17:51N 36°03' W 012°13'1 2.9
2017-Aug-17 17:30N 36°03' W 012°12'2112.1
2017-Aug-17 15:45N 36°02' W 011°45'412.6
2017-Aug-17 15:26N 36°02' W 011°41'512.7
2017-Aug-17 15:00N 36°02' W 011°34'612.8
2017-Aug-17 14:30N 36°02' W 011°26'812.8
2017-Aug-17 13:54N 36°02' W 011°16'512.7
2017-Aug-17 13:30N 36°02' W 011°10'612.5
2017-Aug-17 13:00N 36°02' W 011°02'6612.4
2017-Aug-17 07:43N 36°01' W 009°41'211.8
2017-Aug-17 07:30N 36°01' W 009°38'611.9
2017-Aug-17 06:58N 36°01' W 009°30'512.0
2017-Aug-17 06:30N 36°00' W 009°24'1912.2
2017-Aug-17 04:58N 35°60' W 009°00'612.2
2017-Aug-17 04:30N 35°60' W 008°53'612.4
2017-Aug-17 04:00N 35°60' W 008°46'1412.3
2017-Aug-17 02:51N 35°60' W 008°28'412.5
2017-Aug-17 02:29N 35°60' W 008°22'712.6
2017-Aug-17 01:54N 35°59' W 008°14'812.5
2017-Aug-17 01:17N 35°59' W 008°04'412.8
2017-Aug-17 00:58N 35°59' W 007°59'612.4
2017-Aug-17 00:28N 35°59' W 007°51'712.8
2017-Aug-16 23:53N 35°59' W 007°42'1812.9
2017-Aug-16 22:27N 35°59' W 007°19'712.7
2017-Aug-16 21:54N 35°59' W 007°11'512.7
2017-Aug-16 21:30N 35°59' W 007°04'912.4
2017-Aug-16 20:49N 35°60' W 006°54'412.1
2017-Aug-16 20:28N 36°00' W 006°49'511.6
2017-Aug-16 20:00N 36°01' W 006°42'912.0
2017-Aug-16 19:14N 35°59' W 006°31'312.5
2017-Aug-16 19:00N 35°58' W 006°27'612.5
2017-Aug-16 18:30N 35°58' W 006°20'912.7
2017-Aug-16 17:47N 35°58' W 006°08'512.7
2017-Aug-16 17:25N 35°57' W 006°03'512.6
2017-Aug-16 17:00N 35°58' W 005°56'1612.6
2017-Aug-16 15:42N 35°58' W 005°36'211.5
2017-Aug-16 15:30N 35°58' W 005°33'611.5
2017-Aug-16 15:00N 35°60' W 005°27'712.2
2017-Aug-16 14:25N 36°02' W 005°18'25312.2
2017-Aug-15 17:42N 36°41' W 000°08'513.1
2017-Aug-15 17:18N 36°42' W 000°02'813.0
2017-Aug-15 16:41N 36°43' E 000°08'512.6
2017-Aug-15 16:18N 36°44' E 000°14'512.4
2017-Aug-15 15:56N 36°45' E 000°20'612.3
2017-Aug-15 15:29N 36°46' E 000°26'612.5
2017-Aug-15 15:00N 36°47' E 000°34'3211.9
2017-Aug-15 12:19N 36°51' E 001°13'413.1
2017-Aug-15 12:00N 36°52' E 001°19'813.5
2017-Aug-15 11:26N 36°53' E 001°28'713.4
2017-Aug-15 10:53N 36°53' E 001°37'1413.0
2017-Aug-15 09:47N 36°56' E 001°55'413.1
2017-Aug-15 09:30N 36°56' E 001°59'1313.0
2017-Aug-15 08:29N 36°58' E 002°16'1012.9
2017-Aug-15 07:42N 36°60' E 002°29'312.8
2017-Aug-15 07:28N 36°60' E 002°32'712.9
2017-Aug-15 06:57N 37°01' E 002°40'612.5
2017-Aug-15 06:27N 37°02' E 002°48'612.6
2017-Aug-15 06:00N 37°03' E 002°55'712.6
2017-Aug-15 05:28N 37°04' E 003°03'1312.7
2017-Aug-15 04:26N 37°05' E 003°20'512.6
2017-Aug-15 04:00N 37°06' E 003°27'1012.9
2017-Aug-15 03:11N 37°07' E 003°40'7412.6
2017-Aug-14 21:19N 37°20' E 005°11'912.6
2017-Aug-14 20:37N 37°21' E 005°22'3612.8
2017-Aug-14 17:48N 37°26' E 006°07'412.8
2017-Aug-14 17:30N 37°26' E 006°12'812.8
2017-Aug-14 16:54N 37°27' E 006°21'513.0
2017-Aug-14 16:30N 37°28' E 006°28'712.6
2017-Aug-14 15:58N 37°29' E 006°36'7814.6
2017-Aug-14 10:37N 37°41' E 008°14'24615.1
2017-Aug-13 18:23N 36°39' E 013°12'514.7
2017-Aug-13 18:00N 36°37' E 013°18'814.6
2017-Aug-13 17:29N 36°33' E 013°27'714.3
2017-Aug-13 17:00N 36°30' E 013°35'814.1
2017-Aug-13 16:28N 36°27' E 013°43'814.0
2017-Aug-13 15:55N 36°23' E 013°51'614.2
2017-Aug-13 15:30N 36°21' E 013°58'714.2
2017-Aug-13 15:00N 36°17' E 014°06'914.2
2017-Aug-13 14:23N 36°13' E 014°16'614.4
2017-Aug-13 13:59N 36°11' E 014°22'714.6
2017-Aug-13 13:29N 36°07' E 014°30'714.7
2017-Aug-13 13:00N 36°03' E 014°37'713.9
2017-Aug-13 12:30N 35°59' E 014°44'610.9
2017-Aug-13 11:56N 35°56' E 014°50'0 0.5
2017-Aug-13 11:20N 35°55' E 014°50'0 0.0
2017-Aug-13 06:41N 35°55' E 014°50'0 0.2
2017-Aug-13 06:23N 35°55' E 014°50'0 0.0
2017-Aug-13 05:35N 35°55' E 014°50'0 0.0
2017-Aug-13 05:20N 35°55' E 014°50'0 0.0
2017-Aug-13 03:32N 35°55' E 014°50'0 0.3
2017-Aug-13 03:26N 35°55' E 014°50'0 0.0
2017-Aug-13 02:59N 35°55' E 014°50'0 0.0
2017-Aug-13 02:23N 35°55' E 014°50'0 0.0
2017-Aug-13 01:56N 35°55' E 014°50'0 0.0
2017-Aug-13 01:29N 35°55' E 014°50'0 0.0
2017-Aug-12 23:47N 35°55' E 014°50'0 0.0
2017-Aug-12 22:29N 35°55' E 014°50'0 0.0
2017-Aug-12 21:44N 35°55' E 014°50'0 0.0
2017-Aug-12 15:17N 35°55' E 014°50'0 0.1
2017-Aug-12 14:47N 35°55' E 014°51'0 0.0
2017-Aug-12 14:17N 35°55' E 014°51'0 0.0
2017-Aug-12 13:32N 35°55' E 014°51'0 0.1
2017-Aug-12 13:14N 35°55' E 014°51'1 0.6
2017-Aug-12 11:59N 35°56' E 014°51'5 6.3
2017-Aug-12 11:07N 36°02' E 014°51'1911.7
2017-Aug-12 09:32N 36°18' E 015°02'212.4
2017-Aug-12 09:23N 36°19' E 015°04'512.2
2017-Aug-12 09:00N 36°22' E 015°09'3512.1
2017-Aug-12 06:04N 36°50' E 015°35'112.4
2017-Aug-12 05:59N 36°51' E 015°36'13413.2
2017-Aug-11 19:50N 38°41' E 017°12'412.8
2017-Aug-11 19:30N 38°45' E 017°15'1512.6
2017-Aug-11 18:21N 38°57' E 017°25'413.2
2017-Aug-11 18:00N 39°02' E 017°26'713.0
2017-Aug-11 17:29N 39°09' E 017°27'613.0
2017-Aug-11 17:00N 39°15' E 017°27'712.5
2017-Aug-11 16:28N 39°21' E 017°26'613.6
2017-Aug-11 16:00N 39°28' E 017°24'713.5
2017-Aug-11 15:29N 39°34' E 017°22'613.5
2017-Aug-11 15:00N 39°41' E 017°21'713.5
2017-Aug-11 14:30N 39°47' E 017°19'1815.8
2017-Aug-11 13:21N 40°05' E 017°13'814.8
2017-Aug-11 12:50N 40°12' E 017°11'513.2
2017-Aug-11 12:26N 40°18' E 017°09'910.0
2017-Aug-11 11:33N 40°26' E 017°12'2 6.7
2017-Aug-11 11:11N 40°28' E 017°13'0 0.9
2017-Aug-11 11:01N 40°29' E 017°13'0 0.0
2017-Aug-11 08:48N 40°29' E 017°13'0 0.0
2017-Aug-11 07:51N 40°29' E 017°13'0 0.0
2017-Aug-11 03:42N 40°29' E 017°13'0 0.0
2017-Aug-11 03:06N 40°29' E 017°13'0 0.0
2017-Aug-10 18:45N 40°29' E 017°13'0 0.0
2017-Aug-10 18:30N 40°29' E 017°13'0 0.0
2017-Aug-10 17:33N 40°29' E 017°13'0 0.1
2017-Aug-10 17:27N 40°29' E 017°13'0 0.0
2017-Aug-10 16:36N 40°29' E 017°13'0 0.0
2017-Aug-10 15:36N 40°29' E 017°13'0 0.0
2017-Aug-10 15:18N 40°29' E 017°13'0 0.0
2017-Aug-10 14:15N 40°29' E 017°13'  
Track history (hours):
 
Tides and Currents Weather Stations Pressure Air Temp Water Temp Dewpoint Dewpoint Depression Visibility Wind Speed Wind Dir Waves Ship Positions

Condor Express

Operator: Condor Marine Services

Last reported at 2017-Aug-20 13:49 UTC. Time now 2017-Aug-22 22:28 UTC.
Position N 33°56' W 023°18'.

Length 235 m; draft 7.6 m.

Type: Cargo ship. MMSI: 563014500.

Date/timePositionNaut miles runAvg speedWind from/ knotsBaromVisibWave heightAir tempDewpointWater temp
2017-Aug-20 13:49N 33°56' W 023°18'2213.1
2017-Aug-20 12:11N 33°59' W 022°52'21312.7
2017-Aug-19 19:28N 34°36' W 018°39'28412.8
2017-Aug-18 21:19N 35°26' W 012°58'11 3.3
2017-Aug-18 17:57N 35°30' W 012°45'28 1.7
2017-Aug-18 01:15N 35°52' W 012°23'0 1.5
2017-Aug-18 01:00N 35°52' W 012°22'1 1.6
2017-Aug-18 00:30N 35°53' W 012°22'1 1.5
2017-Aug-18 00:00N 35°53' W 012°21'1 1.6
2017-Aug-17 23:30N 35°54' W 012°20'1 1.7
2017-Aug-17 22:57N 35°55' W 012°20'1 1.9
2017-Aug-17 22:30N 35°55' W 012°19'1 2.0
2017-Aug-17 21:57N 35°56' W 012°18'1 2.1
2017-Aug-17 21:30N 35°57' W 012°18'1 2.0
2017-Aug-17 21:00N 35°58' W 012°17'1 2.0
2017-Aug-17 20:30N 35°59' W 012°17'1 1.9
2017-Aug-17 19:57N 35°60' W 012°16'1 1.9
2017-Aug-17 19:30N 36°00' W 012°15'2 1.8
2017-Aug-17 18:21N 36°02' W 012°14'1 2.0
2017-Aug-17 17:51N 36°03' W 012°13'1 2.9
2017-Aug-17 17:30N 36°03' W 012°12'2112.1
2017-Aug-17 15:45N 36°02' W 011°45'412.6
2017-Aug-17 15:26N 36°02' W 011°41'512.7
2017-Aug-17 15:00N 36°02' W 011°34'612.8
2017-Aug-17 14:30N 36°02' W 011°26'812.8
2017-Aug-17 13:54N 36°02' W 011°16'512.7
2017-Aug-17 13:30N 36°02' W 011°10'612.5
2017-Aug-17 13:00N 36°02' W 011°02'6612.4
2017-Aug-17 07:43N 36°01' W 009°41'211.8
2017-Aug-17 07:30N 36°01' W 009°38'611.9
2017-Aug-17 06:58N 36°01' W 009°30'512.0
2017-Aug-17 06:30N 36°00' W 009°24'1912.2
2017-Aug-17 04:58N 35°60' W 009°00'612.2
2017-Aug-17 04:30N 35°60' W 008°53'612.4
2017-Aug-17 04:00N 35°60' W 008°46'1412.3
2017-Aug-17 02:51N 35°60' W 008°28'412.5
2017-Aug-17 02:29N 35°60' W 008°22'712.6
2017-Aug-17 01:54N 35°59' W 008°14'812.5
2017-Aug-17 01:17N 35°59' W 008°04'412.8
2017-Aug-17 00:58N 35°59' W 007°59'612.4
2017-Aug-17 00:28N 35°59' W 007°51'712.8
2017-Aug-16 23:53N 35°59' W 007°42'1812.9
2017-Aug-16 22:27N 35°59' W 007°19'712.7
2017-Aug-16 21:54N 35°59' W 007°11'512.7
2017-Aug-16 21:30N 35°59' W 007°04'912.4
2017-Aug-16 20:49N 35°60' W 006°54'412.1
2017-Aug-16 20:28N 36°00' W 006°49'511.6
2017-Aug-16 20:00N 36°01' W 006°42'912.0
2017-Aug-16 19:14N 35°59' W 006°31'312.5
2017-Aug-16 19:00N 35°58' W 006°27'612.5
2017-Aug-16 18:30N 35°58' W 006°20'912.7
2017-Aug-16 17:47N 35°58' W 006°08'512.7
2017-Aug-16 17:25N 35°57' W 006°03'512.6
2017-Aug-16 17:00N 35°58' W 005°56'1612.6
2017-Aug-16 15:42N 35°58' W 005°36'211.5
2017-Aug-16 15:30N 35°58' W 005°33'611.5
2017-Aug-16 15:00N 35°60' W 005°27'712.2
2017-Aug-16 14:25N 36°02' W 005°18'25312.2
2017-Aug-15 17:42N 36°41' W 000°08'513.1
2017-Aug-15 17:18N 36°42' W 000°02'813.0
2017-Aug-15 16:41N 36°43' E 000°08'512.6
2017-Aug-15 16:18N 36°44' E 000°14'512.4
2017-Aug-15 15:56N 36°45' E 000°20'612.3
2017-Aug-15 15:29N 36°46' E 000°26'612.5
2017-Aug-15 15:00N 36°47' E 000°34'3211.9
2017-Aug-15 12:19N 36°51' E 001°13'413.1
2017-Aug-15 12:00N 36°52' E 001°19'813.5
2017-Aug-15 11:26N 36°53' E 001°28'713.4
2017-Aug-15 10:53N 36°53' E 001°37'1413.0
2017-Aug-15 09:47N 36°56' E 001°55'413.1
2017-Aug-15 09:30N 36°56' E 001°59'1313.0
2017-Aug-15 08:29N 36°58' E 002°16'1012.9
2017-Aug-15 07:42N 36°60' E 002°29'312.8
2017-Aug-15 07:28N 36°60' E 002°32'712.9
2017-Aug-15 06:57N 37°01' E 002°40'612.5
2017-Aug-15 06:27N 37°02' E 002°48'612.6
2017-Aug-15 06:00N 37°03' E 002°55'712.6
2017-Aug-15 05:28N 37°04' E 003°03'1312.7
2017-Aug-15 04:26N 37°05' E 003°20'512.6
2017-Aug-15 04:00N 37°06' E 003°27'1012.9
2017-Aug-15 03:11N 37°07' E 003°40'7412.6
2017-Aug-14 21:19N 37°20' E 005°11'912.6
2017-Aug-14 20:37N 37°21' E 005°22'3612.8
2017-Aug-14 17:48N 37°26' E 006°07'412.8
2017-Aug-14 17:30N 37°26' E 006°12'812.8
2017-Aug-14 16:54N 37°27' E 006°21'513.0
2017-Aug-14 16:30N 37°28' E 006°28'712.6
2017-Aug-14 15:58N 37°29' E 006°36'7814.6
2017-Aug-14 10:37N 37°41' E 008°14'24615.1
2017-Aug-13 18:23N 36°39' E 013°12'514.7
2017-Aug-13 18:00N 36°37' E 013°18'814.6
2017-Aug-13 17:29N 36°33' E 013°27'714.3
2017-Aug-13 17:00N 36°30' E 013°35'814.1
2017-Aug-13 16:28N 36°27' E 013°43'814.0
2017-Aug-13 15:55N 36°23' E 013°51'614.2
2017-Aug-13 15:30N 36°21' E 013°58'714.2
2017-Aug-13 15:00N 36°17' E 014°06'914.2
2017-Aug-13 14:23N 36°13' E 014°16'614.4
2017-Aug-13 13:59N 36°11' E 014°22'714.6
2017-Aug-13 13:29N 36°07' E 014°30'714.7
2017-Aug-13 13:00N 36°03' E 014°37'713.9
2017-Aug-13 12:30N 35°59' E 014°44'610.9
2017-Aug-13 11:56N 35°56' E 014°50'0 0.5
2017-Aug-13 11:20N 35°55' E 014°50'0 0.0
2017-Aug-13 06:41N 35°55' E 014°50'0 0.2
2017-Aug-13 06:23N 35°55' E 014°50'0 0.0
2017-Aug-13 05:35N 35°55' E 014°50'0 0.0
2017-Aug-13 05:20N 35°55' E 014°50'0 0.0
2017-Aug-13 03:32N 35°55' E 014°50'0 0.3
2017-Aug-13 03:26N 35°55' E 014°50'0 0.0
2017-Aug-13 02:59N 35°55' E 014°50'0 0.0
2017-Aug-13 02:23N 35°55' E 014°50'0 0.0
2017-Aug-13 01:56N 35°55' E 014°50'0 0.0
2017-Aug-13 01:29N 35°55' E 014°50'0 0.0
2017-Aug-12 23:47N 35°55' E 014°50'0 0.0
2017-Aug-12 22:29N 35°55' E 014°50'0 0.0
2017-Aug-12 21:44N 35°55' E 014°50'0 0.0
2017-Aug-12 15:17N 35°55' E 014°50'0 0.1
2017-Aug-12 14:47N 35°55' E 014°51'0 0.0
2017-Aug-12 14:17N 35°55' E 014°51'0 0.0
2017-Aug-12 13:32N 35°55' E 014°51'0 0.1
2017-Aug-12 13:14N 35°55' E 014°51'1 0.6
2017-Aug-12 11:59N 35°56' E 014°51'5 6.3
2017-Aug-12 11:07N 36°02' E 014°51'1911.7
2017-Aug-12 09:32N 36°18' E 015°02'212.4
2017-Aug-12 09:23N 36°19' E 015°04'512.2
2017-Aug-12 09:00N 36°22' E 015°09'3512.1
2017-Aug-12 06:04N 36°50' E 015°35'112.4
2017-Aug-12 05:59N 36°51' E 015°36'13413.2
2017-Aug-11 19:50N 38°41' E 017°12'412.8
2017-Aug-11 19:30N 38°45' E 017°15'1512.6
2017-Aug-11 18:21N 38°57' E 017°25'413.2
2017-Aug-11 18:00N 39°02' E 017°26'713.0
2017-Aug-11 17:29N 39°09' E 017°27'613.0
2017-Aug-11 17:00N 39°15' E 017°27'712.5
2017-Aug-11 16:28N 39°21' E 017°26'613.6
2017-Aug-11 16:00N 39°28' E 017°24'713.5
2017-Aug-11 15:29N 39°34' E 017°22'613.5
2017-Aug-11 15:00N 39°41' E 017°21'713.5
2017-Aug-11 14:30N 39°47' E 017°19'1815.8
2017-Aug-11 13:21N 40°05' E 017°13'814.8
2017-Aug-11 12:50N 40°12' E 017°11'513.2
2017-Aug-11 12:26N 40°18' E 017°09'910.0
2017-Aug-11 11:33N 40°26' E 017°12'2 6.7
2017-Aug-11 11:11N 40°28' E 017°13'0 0.9
2017-Aug-11 11:01N 40°29' E 017°13'0 0.0
2017-Aug-11 08:48N 40°29' E 017°13'0 0.0
2017-Aug-11 07:51N 40°29' E 017°13'0 0.0
2017-Aug-11 03:42N 40°29' E 017°13'0 0.0
2017-Aug-11 03:06N 40°29' E 017°13'0 0.0
2017-Aug-10 18:45N 40°29' E 017°13'0 0.0
2017-Aug-10 18:30N 40°29' E 017°13'0 0.0
2017-Aug-10 17:33N 40°29' E 017°13'0 0.1
2017-Aug-10 17:27N 40°29' E 017°13'0 0.0
2017-Aug-10 16:36N 40°29' E 017°13'0 0.0
2017-Aug-10 15:36N 40°29' E 017°13'0 0.0
2017-Aug-10 15:18N 40°29' E 017°13'0 0.0
2017-Aug-10 14:15N 40°29' E 017°13'  

Dump ship's entire track history